Terminal Aerodrome Forecast
Issued by NWS

Home | Current Version | Previous Version | Text Only | Print | Product List | Glossary On
Versions: 1 2 3 4 5 6 7 8 9 10 11 12 13 14 15 16 17 18 19 20
000
FTUS46 KLOX 180500 RRA
TAFSBA
TAF
KSBA 180542Z 1806/1906 VRB03KT P6SM OVC022
     FM181800 21005KT P6SM OVC025
     FM182200 25007KT P6SM BKN035
     FM190400 VRB03KT P6SM OVC025=

USA.gov is the U.S. government's official web portal to all federal, state and local government web resources and services.